Saundersfoot, United Kingdom
Current Conditions -  °F | °C
As of 1:50 PM on Monday 26 Jan 2015 (Local Time) from EGOP Reporting Station
Scattered Clouds Scattered Clouds  
Wind Chill: 39°   Ceiling: Unl
Heat Index: 46°   Visibility: 6mi
Dew Point: 39°   Wind: 21mph
Humidity: 76%   Direction: 320°NW
Pressure: 30.33"   Gusts: NA
Location:  51.71°N, 4.7°W
Report Text: EGOP 261350Z 32018KT 9999 FEW027 SCT032 08/04 Q1027 BLU
Loading
Personal Weather Stations






























Interactive Weather Map New forecast layout! Learn more

10-Day Weather Forecast

Advertisements
Track Severe Weather on mobile